createdAt,value
2023-01-13T00:00:06.927Z,8.74
2023-01-13T00:00:43.219Z,8.71
2023-01-13T00:01:17.499Z,8.67
2023-01-13T00:01:49.055Z,8.75
2023-01-13T00:02:20.672Z,8.79
2023-01-13T00:02:52.219Z,8.77
2023-01-13T00:03:23.775Z,8.77
2023-01-13T00:03:56.265Z,8.72
2023-01-13T00:04:28.990Z,8.62
2023-01-13T00:05:00.595Z,8.63
2023-01-13T00:05:32.271Z,8.60
2023-01-13T00:06:04.356Z,8.64
2023-01-13T00:06:37.044Z,8.64
2023-01-13T00:07:08.640Z,8.61
2023-01-13T00:07:40.331Z,8.66
2023-01-13T00:08:14.182Z,8.63
2023-01-13T00:08:49.009Z,8.58
2023-01-13T00:09:20.717Z,8.55
2023-01-13T00:09:52.247Z,8.48
2023-01-13T00:10:23.836Z,8.47
2023-01-13T00:10:55.509Z,8.49
2023-01-13T00:11:27.767Z,8.54
2023-01-13T00:11:59.500Z,8.49
2023-01-13T00:12:31.071Z,8.46
2023-01-13T00:13:04.145Z,8.44
2023-01-13T00:13:38.079Z,8.41
2023-01-13T00:14:09.677Z,8.38
2023-01-13T00:14:41.490Z,8.40
2023-01-13T00:15:13.451Z,8.38
2023-01-13T00:15:45.080Z,8.40
2023-01-13T00:16:18.327Z,8.43
2023-01-13T00:16:49.941Z,8.44
2023-01-13T00:17:22.726Z,8.40
2023-01-13T00:17:54.295Z,8.35
2023-01-13T00:18:26.322Z,8.36
2023-01-13T00:19:03.114Z,8.42
2023-01-13T00:19:34.920Z,8.35
2023-01-13T00:20:07.572Z,8.27
2023-01-13T00:20:39.132Z,8.35
2023-01-13T00:21:16.373Z,8.28
2023-01-13T00:21:47.935Z,8.30
2023-01-13T00:22:19.505Z,8.30
2023-01-13T00:22:51.152Z,8.29
2023-01-13T00:23:24.841Z,8.27
2023-01-13T00:23:56.485Z,8.25
2023-01-13T00:24:28.119Z,8.18
2023-01-13T00:25:01.520Z,8.15
2023-01-13T00:25:33.095Z,8.23
2023-01-13T00:26:07.217Z,8.20
2023-01-13T00:26:38.808Z,8.22
2023-01-13T00:27:10.382Z,8.23
2023-01-13T00:27:42.458Z,8.23
2023-01-13T00:28:14.262Z,8.21
2023-01-13T00:28:46.086Z,8.19
2023-01-13T00:29:17.670Z,8.22
2023-01-13T00:29:49.235Z,8.15
2023-01-13T00:30:20.803Z,8.19
2023-01-13T00:30:52.487Z,8.12
2023-01-13T00:31:24.144Z,8.10
2023-01-13T00:31:55.850Z,8.13
2023-01-13T00:32:27.893Z,8.10
2023-01-13T00:32:59.700Z,8.12
2023-01-13T00:33:31.294Z,8.06
2023-01-13T00:34:02.833Z,8.07
2023-01-13T00:34:34.640Z,8.07
2023-01-13T00:35:06.517Z,8.10
2023-01-13T00:35:38.101Z,8.15
2023-01-13T00:36:13.051Z,8.10
2023-01-13T00:36:45.150Z,8.09
2023-01-13T00:37:16.851Z,8.09
2023-01-13T00:37:48.468Z,8.08
2023-01-13T00:38:20.016Z,8.15
2023-01-13T00:38:51.693Z,8.16
2023-01-13T00:39:23.308Z,8.13
2023-01-13T00:39:54.990Z,8.15
2023-01-13T00:40:27.097Z,8.08
2023-01-13T00:41:03.838Z,8.14
2023-01-13T00:41:55.638Z,8.09
2023-01-13T00:42:45.847Z,8.02
2023-01-13T00:43:23.374Z,8.03
2023-01-13T00:43:54.959Z,8.00
2023-01-13T00:44:26.564Z,7.96
2023-01-13T00:44:58.365Z,7.94
2023-01-13T00:45:30.005Z,7.97
2023-01-13T00:46:01.921Z,7.93
2023-01-13T00:46:33.671Z,7.92
2023-01-13T00:47:05.301Z,7.91
2023-01-13T00:47:37.105Z,7.84
2023-01-13T00:48:08.706Z,7.86
2023-01-13T00:48:40.375Z,7.87
2023-01-13T00:49:12.199Z,7.83
2023-01-13T00:49:44.848Z,7.83
2023-01-13T00:50:16.660Z,7.85
2023-01-13T00:50:58.197Z,7.86
2023-01-13T00:51:29.965Z,7.88
2023-01-13T00:52:01.584Z,7.88
2023-01-13T00:52:33.570Z,7.85
2023-01-13T00:53:05.155Z,7.82
2023-01-13T00:53:39.075Z,7.78
2023-01-13T00:54:10.717Z,7.77
2023-01-13T00:54:42.347Z,7.71
2023-01-13T00:55:14.100Z,7.69
2023-01-13T00:55:45.699Z,7.66
2023-01-13T00:56:22.099Z,7.63
2023-01-13T00:57:01.991Z,7.62
2023-01-13T00:57:34.255Z,7.58
2023-01-13T00:58:05.824Z,7.59
2023-01-13T00:58:37.387Z,7.58
2023-01-13T00:59:12.679Z,7.62
2023-01-13T00:59:44.352Z,7.59
2023-01-13T01:00:16.211Z,7.62
2023-01-13T01:00:47.823Z,7.60
2023-01-13T01:01:21.686Z,7.61
2023-01-13T01:01:53.435Z,7.58
2023-01-13T01:02:25.184Z,7.55
2023-01-13T01:02:56.832Z,7.51
2023-01-13T01:03:29.291Z,7.51
2023-01-13T01:04:00.961Z,7.48
2023-01-13T01:04:32.882Z,7.47
2023-01-13T01:05:04.720Z,7.45
2023-01-13T01:05:36.385Z,7.43
2023-01-13T01:06:16.421Z,7.48
2023-01-13T01:06:48.177Z,7.45
2023-01-13T01:07:19.765Z,7.47
2023-01-13T01:07:51.372Z,7.43
2023-01-13T01:08:23.206Z,7.43
2023-01-13T01:08:55.784Z,7.52
2023-01-13T01:09:33.524Z,7.50
2023-01-13T01:10:05.548Z,7.47
2023-01-13T01:10:37.114Z,7.43
2023-01-13T01:11:11.435Z,7.48
2023-01-13T01:11:43.692Z,7.43
2023-01-13T01:12:15.289Z,7.47
2023-01-13T01:12:46.884Z,7.43
2023-01-13T01:13:18.640Z,7.42
2023-01-13T01:13:52.518Z,7.38
2023-01-13T01:14:24.142Z,7.39
2023-01-13T01:14:55.755Z,7.45
2023-01-13T01:15:27.399Z,7.56
2023-01-13T01:15:59.484Z,7.57
2023-01-13T01:16:32.989Z,7.54
2023-01-13T01:17:04.604Z,7.61
2023-01-13T01:17:37.069Z,7.59
2023-01-13T01:18:08.731Z,7.63
2023-01-13T01:18:43.653Z,7.55
2023-01-13T01:19:15.237Z,7.58
2023-01-13T01:19:46.796Z,7.57
2023-01-13T01:20:18.575Z,7.52
2023-01-13T01:20:50.189Z,7.50
2023-01-13T01:21:23.500Z,7.46
2023-01-13T01:21:55.171Z,7.53
2023-01-13T01:22:26.729Z,7.53
2023-01-13T01:23:01.033Z,7.52
2023-01-13T01:23:33.643Z,7.52
2023-01-13T01:24:05.406Z,7.48
2023-01-13T01:24:37.169Z,7.48
2023-01-13T01:25:09.155Z,7.47
2023-01-13T01:25:40.743Z,7.41
2023-01-13T01:26:26.068Z,7.48
2023-01-13T01:26:57.634Z,7.53
2023-01-13T01:27:29.528Z,7.48
2023-01-13T01:28:01.188Z,7.46
2023-01-13T01:28:34.053Z,7.48
2023-01-13T01:29:05.671Z,7.46
2023-01-13T01:29:37.360Z,7.50
2023-01-13T01:30:09.330Z,7.51
2023-01-13T01:30:40.895Z,7.49
2023-01-13T01:31:14.934Z,7.48
2023-01-13T01:31:46.749Z,7.52
2023-01-13T01:32:18.445Z,7.53
2023-01-13T01:32:52.717Z,7.50
2023-01-13T01:33:24.496Z,7.54
2023-01-13T01:33:56.136Z,7.52
2023-01-13T01:34:27.695Z,7.52
2023-01-13T01:34:59.222Z,7.53
2023-01-13T01:35:31.224Z,7.54
2023-01-13T01:36:03.633Z,7.55
2023-01-13T01:36:36.621Z,7.63
2023-01-13T01:37:08.306Z,7.60
2023-01-13T01:37:39.931Z,7.60
2023-01-13T01:38:11.567Z,7.57
2023-01-13T01:38:43.775Z,7.56
2023-01-13T01:39:15.392Z,7.59
2023-01-13T01:39:46.960Z,7.58
2023-01-13T01:40:18.719Z,7.57
2023-01-13T01:40:50.718Z,7.63
2023-01-13T01:41:24.383Z,7.61
2023-01-13T01:42:14.757Z,7.60
2023-01-13T01:43:05.149Z,7.65
2023-01-13T01:44:02.804Z,7.66
2023-01-13T01:44:43.451Z,7.63
2023-01-13T01:45:23.116Z,7.64
2023-01-13T01:45:54.917Z,7.66
2023-01-13T01:46:28.085Z,7.64
2023-01-13T01:46:59.862Z,7.65
2023-01-13T01:47:32.301Z,7.66
2023-01-13T01:48:04.950Z,7.65
2023-01-13T01:48:39.909Z,7.71
2023-01-13T01:49:32.983Z,7.68
2023-01-13T01:50:05.215Z,7.68
2023-01-13T01:50:37.119Z,7.69
2023-01-13T01:51:11.929Z,7.69
2023-01-13T01:51:50.280Z,7.70
2023-01-13T01:52:32.109Z,7.65
2023-01-13T01:53:10.165Z,7.66
2023-01-13T01:53:41.857Z,7.68
2023-01-13T01:54:17.924Z,7.68
2023-01-13T01:55:06.247Z,7.69
2023-01-13T01:55:38.581Z,7.71
2023-01-13T01:56:10.749Z,7.68
2023-01-13T01:56:43.874Z,7.69
2023-01-13T01:57:20.256Z,7.66
2023-01-13T01:57:54.721Z,7.68
2023-01-13T01:58:34.610Z,7.65
2023-01-13T01:59:06.278Z,7.65
2023-01-13T01:59:38.512Z,7.64
2023-01-13T02:00:11.918Z,7.66
2023-01-13T02:00:43.641Z,7.64
2023-01-13T02:01:16.269Z,7.64
2023-01-13T02:01:48.623Z,7.72
2023-01-13T02:02:20.343Z,7.68
2023-01-13T02:02:52.235Z,7.67
2023-01-13T02:03:24.219Z,7.67
2023-01-13T02:04:01.114Z,7.66
2023-01-13T02:04:36.564Z,7.63
2023-01-13T02:05:08.533Z,7.62
2023-01-13T02:05:40.217Z,7.63
2023-01-13T02:06:12.695Z,7.61
2023-01-13T02:06:46.188Z,7.54
2023-01-13T02:07:24.174Z,7.51
2023-01-13T02:07:58.009Z,7.45
2023-01-13T02:08:29.716Z,7.45
2023-01-13T02:09:01.517Z,7.46
2023-01-13T02:09:33.539Z,7.51
2023-01-13T02:10:09.548Z,7.47
2023-01-13T02:10:42.571Z,7.44
2023-01-13T02:11:47.819Z,7.40
2023-01-13T02:12:34.621Z,7.38
2023-01-13T02:13:09.009Z,7.39
2023-01-13T02:13:40.704Z,7.35
2023-01-13T02:14:12.430Z,7.36
2023-01-13T02:14:44.382Z,7.38
2023-01-13T02:15:20.552Z,7.37
2023-01-13T02:15:57.050Z,7.38
2023-01-13T02:16:28.952Z,7.36
2023-01-13T02:17:16.087Z,7.36
2023-01-13T02:17:59.509Z,7.42
2023-01-13T02:19:25.970Z,7.37
2023-01-13T02:20:29.333Z,7.35
2023-01-13T02:21:28.616Z,7.23
2023-01-13T02:22:26.162Z,7.23
2023-01-13T02:23:43.975Z,7.23
2023-01-13T02:24:54.209Z,7.20
2023-01-13T02:25:59.318Z,7.20
2023-01-13T02:27:08.501Z,7.16
2023-01-13T02:28:10.858Z,7.15
2023-01-13T02:29:31.513Z,7.20
2023-01-13T02:30:42.973Z,7.11
2023-01-13T02:31:33.821Z,7.17
2023-01-13T02:32:20.401Z,7.13
2023-01-13T02:33:25.277Z,7.12
2023-01-13T02:34:14.178Z,7.12
2023-01-13T02:35:04.272Z,7.13
2023-01-13T02:35:44.875Z,7.09
2023-01-13T02:36:31.239Z,7.08
2023-01-13T02:37:07.657Z,7.07
2023-01-13T02:37:42.650Z,7.07
2023-01-13T02:38:15.555Z,7.09
2023-01-13T02:38:51.999Z,7.06
2023-01-13T02:39:33.616Z,7.04
2023-01-13T02:40:12.828Z,7.07
2023-01-13T02:40:59.389Z,7.08
2023-01-13T02:41:49.545Z,7.06
2023-01-13T02:42:47.093Z,7.07
2023-01-13T02:43:41.854Z,7.09
2023-01-13T02:44:16.997Z,7.10
2023-01-13T02:44:52.710Z,7.09
2023-01-13T02:45:29.618Z,6.95
2023-01-13T02:46:31.509Z,7.01
2023-01-13T02:47:03.058Z,7.07
2023-01-13T02:47:37.717Z,7.04
2023-01-13T02:48:10.199Z,7.02
2023-01-13T02:48:44.947Z,7.01
2023-01-13T02:49:38.223Z,6.99
2023-01-13T02:50:17.457Z,6.99
2023-01-13T02:50:54.742Z,6.98
2023-01-13T02:51:27.714Z,6.99
2023-01-13T02:52:06.554Z,7.01
2023-01-13T02:52:41.943Z,6.99
2023-01-13T02:53:19.876Z,7.00
2023-01-13T02:53:57.282Z,7.05
2023-01-13T02:54:29.697Z,7.02
2023-01-13T02:55:09.124Z,6.98
2023-01-13T02:55:46.367Z,7.01
2023-01-13T02:56:18.206Z,7.02
2023-01-13T02:56:51.242Z,7.06
2023-01-13T02:57:24.208Z,7.08
2023-01-13T02:57:59.460Z,7.09
2023-01-13T02:58:32.710Z,7.07
2023-01-13T02:59:04.436Z,7.09
2023-01-13T02:59:36.881Z,7.07
2023-01-13T03:00:09.509Z,7.07
2023-01-13T03:00:41.805Z,7.09
2023-01-13T03:01:13.543Z,7.16
2023-01-13T03:01:45.801Z,7.15
2023-01-13T03:02:20.370Z,7.12
2023-01-13T03:02:52.528Z,7.18
2023-01-13T03:03:24.949Z,7.13
2023-01-13T03:03:56.500Z,7.16
2023-01-13T03:04:48.849Z,7.14
2023-01-13T03:05:20.609Z,7.08
2023-01-13T03:05:55.044Z,7.00
2023-01-13T03:06:29.905Z,6.99
2023-01-13T03:07:12.930Z,7.00
2023-01-13T03:08:00.057Z,7.01
2023-01-13T03:08:43.563Z,7.06
2023-01-13T03:09:33.497Z,7.09
2023-01-13T03:10:38.105Z,7.07
2023-01-13T03:11:12.430Z,7.05
2023-01-13T03:12:04.267Z,7.10
2023-01-13T03:12:49.185Z,7.06
2023-01-13T03:13:35.351Z,7.09
2023-01-13T03:14:07.850Z,7.06
2023-01-13T03:14:48.689Z,7.10
2023-01-13T03:15:37.153Z,7.08
2023-01-13T03:16:20.912Z,7.06
2023-01-13T03:17:20.226Z,7.02
2023-01-13T03:18:14.338Z,7.06
2023-01-13T03:18:52.216Z,7.03
2023-01-13T03:19:43.843Z,7.07
2023-01-13T03:20:26.545Z,7.07
2023-01-13T03:21:07.523Z,7.10
2023-01-13T03:22:19.256Z,7.08
2023-01-13T03:22:58.021Z,7.18
2023-01-13T03:23:50.197Z,7.16
2023-01-13T03:24:37.558Z,7.13
2023-01-13T03:25:12.913Z,7.11
2023-01-13T03:26:00.795Z,7.10
2023-01-13T03:26:39.989Z,7.13
2023-01-13T03:27:27.436Z,7.13
2023-01-13T03:28:02.791Z,7.17
2023-01-13T03:28:41.357Z,7.18
2023-01-13T03:29:45.795Z,7.16
2023-01-13T03:30:28.824Z,7.20
2023-01-13T03:31:05.416Z,7.15
2023-01-13T03:31:44.459Z,7.13
2023-01-13T03:32:40.801Z,7.16
2023-01-13T03:33:22.623Z,7.16
2023-01-13T03:34:13.923Z,7.19
2023-01-13T03:34:48.810Z,7.16
2023-01-13T03:35:30.694Z,7.20
2023-01-13T03:36:04.515Z,7.22
2023-01-13T03:36:37.744Z,7.22
2023-01-13T03:37:09.988Z,7.18
2023-01-13T03:37:45.524Z,7.17
2023-01-13T03:38:24.419Z,7.25
2023-01-13T03:39:03.068Z,7.26
2023-01-13T03:39:36.756Z,7.29
2023-01-13T03:40:15.562Z,7.25
2023-01-13T03:40:55.916Z,7.25
2023-01-13T03:42:04.733Z,7.25
2023-01-13T03:42:38.165Z,7.25
2023-01-13T03:43:32.160Z,7.20
2023-01-13T03:44:22.198Z,7.24
2023-01-13T03:45:25.873Z,7.32
2023-01-13T03:46:00.396Z,7.31
2023-01-13T03:47:09.179Z,7.31
2023-01-13T03:47:46.271Z,7.29
2023-01-13T03:48:19.319Z,7.32
2023-01-13T03:48:55.721Z,7.29
2023-01-13T03:49:32.449Z,7.30
2023-01-13T03:50:10.235Z,7.30
2023-01-13T03:50:48.386Z,7.25
2023-01-13T03:51:23.063Z,7.30
2023-01-13T03:52:03.620Z,7.29
2023-01-13T03:52:38.042Z,7.36
2023-01-13T03:53:14.930Z,7.28
2023-01-13T03:53:50.868Z,7.21
2023-01-13T03:54:26.064Z,7.28
2023-01-13T03:55:02.541Z,7.28
2023-01-13T03:55:42.177Z,7.27
2023-01-13T03:56:18.196Z,7.30
2023-01-13T03:57:00.541Z,7.30
2023-01-13T03:57:36.548Z,7.30
2023-01-13T03:58:35.579Z,7.28
2023-01-13T03:59:08.818Z,7.32
2023-01-13T03:59:43.194Z,7.22
2023-01-13T04:00:15.680Z,7.29
2023-01-13T04:00:53.360Z,7.29
2023-01-13T04:01:29.376Z,7.26
2023-01-13T04:02:07.979Z,7.25
2023-01-13T04:02:52.523Z,7.29
2023-01-13T04:03:32.990Z,7.27
2023-01-13T04:04:07.850Z,7.26
2023-01-13T04:04:44.027Z,7.29
2023-01-13T04:05:17.506Z,7.23
2023-01-13T04:05:52.914Z,7.20
2023-01-13T04:06:44.455Z,7.29
2023-01-13T04:07:20.805Z,7.27
2023-01-13T04:08:06.656Z,7.24
2023-01-13T04:08:44.476Z,7.25
2023-01-13T04:09:30.653Z,7.25
2023-01-13T04:10:06.636Z,7.26
2023-01-13T04:10:43.950Z,7.26
2023-01-13T04:11:20.037Z,7.27
2023-01-13T04:12:49.777Z,7.24
2023-01-13T04:13:23.632Z,7.21
2023-01-13T04:13:56.027Z,7.22
2023-01-13T04:14:29.027Z,7.20
2023-01-13T04:15:00.922Z,7.21
2023-01-13T04:15:38.451Z,7.24
2023-01-13T04:16:11.314Z,7.27
2023-01-13T04:16:43.527Z,7.31
2023-01-13T04:17:16.247Z,7.31
2023-01-13T04:17:47.813Z,7.28
2023-01-13T04:18:25.211Z,7.29
2023-01-13T04:18:56.742Z,7.33
2023-01-13T04:19:28.414Z,7.30
2023-01-13T04:19:59.963Z,7.37
2023-01-13T04:20:31.513Z,7.37
2023-01-13T04:21:04.496Z,7.33
2023-01-13T04:21:36.102Z,7.30
2023-01-13T04:22:07.685Z,7.28
2023-01-13T04:22:39.412Z,7.27
2023-01-13T04:23:12.153Z,7.25
2023-01-13T04:23:43.902Z,7.25
2023-01-13T04:24:15.520Z,7.29
2023-01-13T04:24:47.100Z,7.25
2023-01-13T04:25:18.695Z,7.26
2023-01-13T04:25:51.542Z,7.22
2023-01-13T04:26:24.358Z,7.21
2023-01-13T04:26:56.569Z,7.21
2023-01-13T04:27:28.118Z,7.23
2023-01-13T04:27:59.663Z,7.21
2023-01-13T04:28:31.277Z,7.23
2023-01-13T04:29:03.075Z,7.20
2023-01-13T04:29:34.806Z,7.25
2023-01-13T04:30:07.065Z,7.23
2023-01-13T04:30:39.061Z,7.24
2023-01-13T04:31:10.643Z,7.20
2023-01-13T04:31:42.964Z,7.19
2023-01-13T04:32:14.524Z,7.18
2023-01-13T04:32:46.035Z,7.17
2023-01-13T04:33:18.714Z,7.17
2023-01-13T04:33:50.282Z,7.20
2023-01-13T04:34:22.036Z,7.12
2023-01-13T04:34:54.218Z,7.10
2023-01-13T04:35:26.147Z,7.07
2023-01-13T04:35:57.724Z,7.11
2023-01-13T04:36:29.345Z,7.12
2023-01-13T04:37:01.230Z,7.15
2023-01-13T04:37:33.425Z,7.15
2023-01-13T04:38:08.281Z,7.16
2023-01-13T04:38:40.006Z,7.14
2023-01-13T04:39:11.700Z,7.18
2023-01-13T04:39:43.276Z,7.18
2023-01-13T04:40:14.982Z,7.17
2023-01-13T04:40:46.994Z,7.19
2023-01-13T04:41:18.614Z,7.21
2023-01-13T04:41:58.967Z,7.20
2023-01-13T04:42:30.674Z,7.20
2023-01-13T04:43:03.228Z,7.16
2023-01-13T04:43:34.749Z,7.22
2023-01-13T04:44:06.353Z,7.17
2023-01-13T04:44:38.049Z,7.19
2023-01-13T04:45:11.820Z,7.19
2023-01-13T04:45:43.848Z,7.21
2023-01-13T04:46:15.418Z,7.12
2023-01-13T04:46:47.184Z,7.18
2023-01-13T04:47:18.868Z,7.16
2023-01-13T04:47:50.436Z,7.19
2023-01-13T04:48:22.080Z,7.21
2023-01-13T04:48:53.619Z,7.22
2023-01-13T04:49:25.293Z,7.21
2023-01-13T04:49:59.056Z,7.22
2023-01-13T04:50:30.736Z,7.20
2023-01-13T04:51:02.298Z,7.16
2023-01-13T04:51:34.173Z,7.18
2023-01-13T04:52:07.280Z,7.11
2023-01-13T04:52:39.146Z,7.08
2023-01-13T04:53:11.035Z,7.15
2023-01-13T04:53:42.668Z,7.21
2023-01-13T04:54:14.749Z,7.04
2023-01-13T04:54:46.770Z,6.99
2023-01-13T04:55:19.311Z,6.95
2023-01-13T04:55:52.123Z,6.89
2023-01-13T04:56:23.753Z,6.87
2023-01-13T04:56:55.355Z,6.87
2023-01-13T04:57:27.028Z,6.87
2023-01-13T04:58:06.107Z,6.95
2023-01-13T04:58:37.694Z,6.91
2023-01-13T04:59:10.999Z,6.91
2023-01-13T04:59:42.608Z,6.87
2023-01-13T05:00:16.607Z,6.87
2023-01-13T05:00:50.665Z,6.85
2023-01-13T05:01:22.571Z,6.90
2023-01-13T05:01:54.454Z,6.89
2023-01-13T05:02:26.120Z,6.87
2023-01-13T05:02:57.878Z,6.87
2023-01-13T05:03:29.433Z,6.90
2023-01-13T05:04:00.985Z,6.90
2023-01-13T05:04:32.592Z,6.85
2023-01-13T05:05:04.734Z,6.80
2023-01-13T05:05:36.492Z,6.78
2023-01-13T05:06:08.108Z,6.75
2023-01-13T05:06:40.296Z,6.75
2023-01-13T05:07:11.960Z,6.78
2023-01-13T05:07:43.563Z,6.71
2023-01-13T05:08:15.136Z,6.70
2023-01-13T05:08:46.701Z,6.67
2023-01-13T05:09:18.323Z,6.70
2023-01-13T05:09:50.022Z,6.69
2023-01-13T05:10:23.856Z,6.66
2023-01-13T05:10:55.738Z,6.66
2023-01-13T05:11:45.884Z,6.68
2023-01-13T05:12:36.009Z,6.69
2023-01-13T05:13:27.825Z,6.68
2023-01-13T05:14:17.988Z,6.71
2023-01-13T05:15:08.177Z,6.66
2023-01-13T05:15:59.470Z,6.71
2023-01-13T05:16:49.411Z,6.69
2023-01-13T05:17:23.263Z,6.70
2023-01-13T05:17:54.942Z,6.69
2023-01-13T05:18:28.096Z,6.73
2023-01-13T05:18:59.758Z,6.76
2023-01-13T05:19:33.651Z,6.81
2023-01-13T05:20:06.344Z,6.78
2023-01-13T05:20:38.237Z,6.78
2023-01-13T05:21:29.749Z,6.78
2023-01-13T05:22:20.344Z,6.77
2023-01-13T05:23:10.630Z,6.77
2023-01-13T05:24:00.659Z,6.70
2023-01-13T05:24:53.732Z,6.77
2023-01-13T05:25:26.072Z,6.69
2023-01-13T05:25:57.675Z,6.73
2023-01-13T05:26:29.295Z,6.70
2023-01-13T05:27:00.843Z,6.71
2023-01-13T05:27:33.588Z,6.70
2023-01-13T05:28:05.453Z,6.76
2023-01-13T05:28:37.033Z,6.71
2023-01-13T05:29:08.578Z,6.74
2023-01-13T05:29:40.325Z,6.74
2023-01-13T05:30:12.147Z,6.75
2023-01-13T05:30:46.275Z,6.73
2023-01-13T05:31:17.984Z,6.72
2023-01-13T05:31:49.726Z,6.75
2023-01-13T05:32:21.818Z,6.75
2023-01-13T05:32:53.516Z,6.76
2023-01-13T05:33:25.100Z,6.72
2023-01-13T05:33:57.289Z,6.76
2023-01-13T05:34:28.813Z,6.72
2023-01-13T05:35:00.678Z,6.78
2023-01-13T05:35:32.588Z,6.70
2023-01-13T05:36:04.414Z,6.65
2023-01-13T05:36:35.929Z,6.63
2023-01-13T05:37:08.262Z,6.65
2023-01-13T05:37:39.894Z,6.67
2023-01-13T05:38:12.409Z,6.67
2023-01-13T05:38:44.022Z,6.65
2023-01-13T05:39:15.582Z,6.72
2023-01-13T05:40:05.680Z,6.75
2023-01-13T05:40:59.702Z,6.65
2023-01-13T05:41:49.813Z,6.59
2023-01-13T05:42:40.226Z,6.64
2023-01-13T05:43:22.028Z,6.66
2023-01-13T05:43:53.937Z,6.64
2023-01-13T05:44:25.563Z,6.60
2023-01-13T05:44:57.095Z,6.61
2023-01-13T05:45:30.513Z,6.59
2023-01-13T05:46:08.018Z,6.61
2023-01-13T05:46:40.676Z,6.70
2023-01-13T05:47:13.627Z,6.66
2023-01-13T05:47:45.321Z,6.69
2023-01-13T05:48:18.424Z,6.71
2023-01-13T05:48:50.772Z,6.68
2023-01-13T05:49:22.380Z,6.74
2023-01-13T05:49:53.958Z,6.74
2023-01-13T05:50:28.480Z,6.75
2023-01-13T05:51:00.927Z,6.74
2023-01-13T05:51:32.461Z,6.77
2023-01-13T05:52:04.233Z,6.78
2023-01-13T05:52:35.858Z,6.78
2023-01-13T05:53:07.541Z,6.74
2023-01-13T05:53:40.904Z,6.75
2023-01-13T05:54:12.589Z,6.77
2023-01-13T05:54:44.118Z,6.75
2023-01-13T05:55:15.948Z,6.73
2023-01-13T05:55:49.504Z,6.76
2023-01-13T05:56:21.129Z,6.74
2023-01-13T05:56:52.658Z,6.75
2023-01-13T05:57:24.384Z,6.71
2023-01-13T05:57:55.938Z,6.76
2023-01-13T05:58:28.016Z,6.76
2023-01-13T05:58:59.651Z,6.79
2023-01-13T05:59:31.181Z,6.77
2023-01-13T06:00:04.367Z,6.83
2023-01-13T06:00:43.564Z,6.91
2023-01-13T06:01:15.340Z,6.86
2023-01-13T06:01:46.934Z,6.84
2023-01-13T06:02:18.664Z,6.87
2023-01-13T06:02:50.333Z,6.93
2023-01-13T06:03:22.014Z,6.93
2023-01-13T06:03:53.564Z,6.94
2023-01-13T06:04:25.167Z,6.97
2023-01-13T06:04:56.793Z,7.01
2023-01-13T06:05:29.138Z,6.98
2023-01-13T06:06:02.218Z,6.95
2023-01-13T06:06:33.800Z,6.97
2023-01-13T06:07:05.482Z,7.02
2023-01-13T06:07:37.048Z,7.03
2023-01-13T06:08:09.087Z,7.01
2023-01-13T06:08:40.678Z,6.97
2023-01-13T06:09:12.316Z,6.95
2023-01-13T06:09:43.961Z,7.00
2023-01-13T06:10:15.770Z,6.98
2023-01-13T06:10:47.297Z,7.01
2023-01-13T06:11:18.852Z,6.99
2023-01-13T06:11:50.648Z,6.97
2023-01-13T06:12:22.188Z,6.97
2023-01-13T06:12:53.792Z,6.96
2023-01-13T06:13:25.795Z,6.94
2023-01-13T06:13:57.343Z,6.94
2023-01-13T06:14:39.956Z,6.92
2023-01-13T06:15:11.583Z,6.86
2023-01-13T06:15:43.263Z,6.90
2023-01-13T06:16:14.987Z,6.87
2023-01-13T06:16:46.713Z,6.94
2023-01-13T06:17:18.327Z,6.94
2023-01-13T06:17:49.910Z,6.92
2023-01-13T06:18:21.461Z,6.93
2023-01-13T06:18:54.556Z,6.95
2023-01-13T06:19:26.119Z,7.01
2023-01-13T06:19:57.658Z,7.02
2023-01-13T06:20:29.486Z,7.04
2023-01-13T06:21:01.150Z,7.05
2023-01-13T06:21:33.357Z,6.99
2023-01-13T06:22:15.240Z,7.04
2023-01-13T06:22:49.129Z,7.00
2023-01-13T06:23:21.048Z,7.02
2023-01-13T06:23:52.699Z,6.98
2023-01-13T06:24:24.291Z,6.99
2023-01-13T06:24:55.913Z,7.00
2023-01-13T06:25:56.913Z,6.93
2023-01-13T06:26:30.710Z,6.99
2023-01-13T06:27:02.485Z,7.00
2023-01-13T06:27:34.423Z,6.94
2023-01-13T06:28:06.074Z,6.93
2023-01-13T06:28:37.716Z,6.94
2023-01-13T06:29:10.162Z,6.95
2023-01-13T06:29:41.856Z,6.98
2023-01-13T06:30:13.592Z,6.96
2023-01-13T06:30:57.443Z,6.95
2023-01-13T06:31:29.094Z,6.95
2023-01-13T06:32:07.026Z,6.97
2023-01-13T06:32:43.585Z,6.95
2023-01-13T06:33:18.245Z,6.96
2023-01-13T06:33:53.382Z,6.98
2023-01-13T06:34:25.203Z,6.99
2023-01-13T06:35:00.380Z,6.90
2023-01-13T06:35:35.853Z,6.92
2023-01-13T06:36:11.766Z,6.97
2023-01-13T06:36:48.982Z,6.96
2023-01-13T06:37:22.058Z,6.91
2023-01-13T06:37:55.089Z,6.90
2023-01-13T06:38:27.893Z,6.84
2023-01-13T06:39:01.434Z,6.81
2023-01-13T06:39:35.891Z,6.79
2023-01-13T06:40:08.366Z,6.80
2023-01-13T06:40:44.276Z,6.77
2023-01-13T06:41:16.245Z,6.68
2023-01-13T06:42:07.015Z,6.68
2023-01-13T06:42:57.792Z,6.66
2023-01-13T06:43:29.430Z,6.59
2023-01-13T06:44:00.970Z,6.61
2023-01-13T06:44:32.791Z,6.61
2023-01-13T06:45:04.607Z,6.61
2023-01-13T06:45:36.272Z,6.66
2023-01-13T06:46:08.933Z,6.62
2023-01-13T06:46:40.581Z,6.59
2023-01-13T06:47:14.177Z,6.58
2023-01-13T06:47:45.741Z,6.59
2023-01-13T06:48:18.334Z,6.56
2023-01-13T06:48:49.997Z,6.56
2023-01-13T06:49:21.911Z,6.57
2023-01-13T06:49:53.986Z,6.67
2023-01-13T06:50:26.651Z,6.72
2023-01-13T06:50:58.414Z,6.68
2023-01-13T06:51:29.977Z,6.69
2023-01-13T06:52:01.736Z,6.72
2023-01-13T06:52:33.481Z,6.74
2023-01-13T06:53:05.092Z,6.74
2023-01-13T06:53:36.694Z,6.73
2023-01-13T06:54:08.818Z,6.72
2023-01-13T06:54:40.369Z,6.69
2023-01-13T06:55:12.326Z,6.70
2023-01-13T06:55:43.940Z,6.75
2023-01-13T06:56:15.466Z,6.75
2023-01-13T06:56:47.034Z,6.74
2023-01-13T06:57:18.672Z,6.78
2023-01-13T06:57:55.016Z,6.75
2023-01-13T06:58:26.698Z,6.80
2023-01-13T06:58:58.272Z,6.80
2023-01-13T06:59:30.107Z,6.81
2023-01-13T07:00:01.800Z,6.84
2023-01-13T07:00:36.481Z,6.83
2023-01-13T07:01:08.180Z,6.81
2023-01-13T07:01:39.938Z,6.80
2023-01-13T07:02:11.805Z,6.77
2023-01-13T07:02:43.651Z,6.77
2023-01-13T07:03:16.796Z,6.76
2023-01-13T07:03:48.368Z,6.83
2023-01-13T07:04:19.926Z,6.83
2023-01-13T07:04:51.685Z,6.85
2023-01-13T07:05:23.237Z,6.88
2023-01-13T07:05:55.690Z,6.88
2023-01-13T07:06:28.350Z,6.87
2023-01-13T07:07:00.038Z,6.86
2023-01-13T07:07:32.736Z,6.83
2023-01-13T07:08:04.615Z,6.81
2023-01-13T07:08:36.312Z,6.85
2023-01-13T07:09:07.833Z,6.87
2023-01-13T07:09:40.269Z,6.85
2023-01-13T07:10:22.464Z,6.85
2023-01-13T07:10:54.462Z,6.82
2023-01-13T07:11:26.230Z,6.82
2023-01-13T07:11:57.805Z,6.82
2023-01-13T07:12:29.402Z,6.87
2023-01-13T07:13:20.543Z,6.87
2023-01-13T07:14:10.502Z,6.86
2023-01-13T07:15:00.784Z,6.89
2023-01-13T07:15:32.363Z,6.93
2023-01-13T07:16:06.391Z,6.91
2023-01-13T07:16:38.167Z,6.91
2023-01-13T07:17:09.965Z,6.89
2023-01-13T07:17:41.564Z,6.93
2023-01-13T07:18:13.230Z,6.94
2023-01-13T07:18:49.489Z,6.91
2023-01-13T07:19:23.934Z,6.93
2023-01-13T07:19:55.645Z,6.92
2023-01-13T07:20:27.623Z,6.89
2023-01-13T07:21:04.524Z,6.87
2023-01-13T07:21:36.074Z,6.86
2023-01-13T07:22:07.869Z,6.91
2023-01-13T07:22:39.388Z,6.93
2023-01-13T07:23:10.990Z,6.88
2023-01-13T07:23:42.580Z,6.94
2023-01-13T07:24:14.274Z,6.97
2023-01-13T07:24:45.872Z,6.98
2023-01-13T07:25:17.595Z,6.95
2023-01-13T07:25:49.354Z,6.96
2023-01-13T07:26:20.964Z,6.97
2023-01-13T07:26:52.812Z,6.98
2023-01-13T07:27:24.748Z,6.93
2023-01-13T07:27:57.463Z,6.95
2023-01-13T07:28:30.302Z,6.95
2023-01-13T07:29:01.953Z,6.95
2023-01-13T07:29:33.487Z,6.97
2023-01-13T07:30:06.184Z,6.95
2023-01-13T07:30:38.479Z,6.92
2023-01-13T07:31:18.264Z,6.94
2023-01-13T07:31:50.348Z,6.98
2023-01-13T07:32:22.068Z,6.95
2023-01-13T07:32:53.593Z,6.94
2023-01-13T07:33:25.494Z,6.92
2023-01-13T07:33:57.079Z,6.96
2023-01-13T07:34:28.624Z,6.95
2023-01-13T07:35:05.268Z,6.98
2023-01-13T07:35:37.030Z,6.97
2023-01-13T07:36:09.097Z,7.00
2023-01-13T07:36:40.760Z,7.02
2023-01-13T07:37:12.316Z,7.01
2023-01-13T07:37:43.865Z,6.99
2023-01-13T07:38:15.899Z,7.05
2023-01-13T07:38:47.598Z,7.03
2023-01-13T07:39:19.187Z,7.02
2023-01-13T07:39:53.160Z,6.99
2023-01-13T07:40:24.693Z,7.00
2023-01-13T07:40:56.265Z,6.96
2023-01-13T07:41:48.303Z,6.96
2023-01-13T07:42:40.086Z,6.95
2023-01-13T07:43:31.322Z,6.97
2023-01-13T07:44:06.231Z,6.94
2023-01-13T07:44:37.922Z,6.97
2023-01-13T07:45:12.226Z,6.96
2023-01-13T07:45:44.051Z,7.01
2023-01-13T07:46:16.079Z,7.01
2023-01-13T07:46:47.714Z,7.00
2023-01-13T07:47:23.233Z,6.96
2023-01-13T07:47:55.150Z,6.96
2023-01-13T07:48:27.581Z,6.95
2023-01-13T07:48:59.710Z,6.97
2023-01-13T07:49:31.450Z,6.98
2023-01-13T07:50:08.705Z,6.97
2023-01-13T07:50:41.104Z,6.97
2023-01-13T07:51:14.726Z,6.97
2023-01-13T07:51:47.355Z,6.97
2023-01-13T07:52:18.899Z,6.98
2023-01-13T07:52:51.019Z,7.00
2023-01-13T07:53:26.408Z,6.97